Shelburn, Indiana
Current Conditions -  °F | °C
As of 9:55 PM on Wednesday 26 Nov 2014 (Local Time) from KRSV Reporting Station
Overcast Overcast  
Wind Chill: 27°   Ceiling: 2800
Heat Index: 32°   Visibility: 7mi
Dew Point: 31°   Wind: 5mph
Humidity: 96%   Direction: 320°NW
Pressure: 30.1"   Gusts: NA
Location:  39.18°N, 87.39°W
Report Text: KRSV 270255Z AUTO 32004KT 7SM BKN028 OVC039 00/M01 A3010 RMK AO2 T10011006
Loading
Personal Weather Stations






























Interactive Weather Map New forecast layout! Learn more

10-Day Weather Forecast

Advertisements
Track Severe Weather on mobile